sensor_id;sensor_type;location;lat;lon;timestamp;temperature;humidity
78779;DHT22;68121;52.404;5.318;2024-01-06T00:01:53;5.10;77.30
78779;DHT22;68121;52.404;5.318;2024-01-06T00:04:19;5.00;77.30
78779;DHT22;68121;52.404;5.318;2024-01-06T00:06:45;5.00;77.30
78779;DHT22;68121;52.404;5.318;2024-01-06T00:09:11;5.00;77.30
78779;DHT22;68121;52.404;5.318;2024-01-06T00:11:37;5.00;77.40
78779;DHT22;68121;52.404;5.318;2024-01-06T00:14:03;5.00;77.40
78779;DHT22;68121;52.404;5.318;2024-01-06T00:16:29;5.00;77.40
78779;DHT22;68121;52.404;5.318;2024-01-06T00:18:55;4.90;77.30
78779;DHT22;68121;52.404;5.318;2024-01-06T00:21:21;4.90;77.30
78779;DHT22;68121;52.404;5.318;2024-01-06T00:23:47;4.90;77.30
78779;DHT22;68121;52.404;5.318;2024-01-06T00:26:13;4.80;77.30
78779;DHT22;68121;52.404;5.318;2024-01-06T00:28:39;4.80;77.20
78779;DHT22;68121;52.404;5.318;2024-01-06T00:31:06;4.70;77.30
78779;DHT22;68121;52.404;5.318;2024-01-06T00:33:32;4.70;77.30
78779;DHT22;68121;52.404;5.318;2024-01-06T00:35:58;4.70;77.20
78779;DHT22;68121;52.404;5.318;2024-01-06T00:38:24;4.60;77.20
78779;DHT22;68121;52.404;5.318;2024-01-06T00:40:50;4.50;77.30
78779;DHT22;68121;52.404;5.318;2024-01-06T00:43:16;4.50;77.30
78779;DHT22;68121;52.404;5.318;2024-01-06T00:45:42;4.50;77.40
78779;DHT22;68121;52.404;5.318;2024-01-06T00:48:08;4.50;77.40
78779;DHT22;68121;52.404;5.318;2024-01-06T00:50:34;4.50;77.30
78779;DHT22;68121;52.404;5.318;2024-01-06T00:53:00;4.50;77.30
78779;DHT22;68121;52.404;5.318;2024-01-06T00:55:26;4.50;77.20
78779;DHT22;68121;52.404;5.318;2024-01-06T00:57:52;4.50;77.20
78779;DHT22;68121;52.404;5.318;2024-01-06T01:00:18;4.50;77.20
78779;DHT22;68121;52.404;5.318;2024-01-06T01:02:44;4.50;77.20
78779;DHT22;68121;52.404;5.318;2024-01-06T01:05:10;4.50;77.20
78779;DHT22;68121;52.404;5.318;2024-01-06T01:07:36;4.50;77.20
78779;DHT22;68121;52.404;5.318;2024-01-06T01:10:03;4.50;77.10
78779;DHT22;68121;52.404;5.318;2024-01-06T01:12:30;4.50;77.10
78779;DHT22;68121;52.404;5.318;2024-01-06T01:14:56;4.50;77.10
78779;DHT22;68121;52.404;5.318;2024-01-06T01:17:22;4.50;77.00
78779;DHT22;68121;52.404;5.318;2024-01-06T01:19:48;4.50;77.10
78779;DHT22;68121;52.404;5.318;2024-01-06T01:22:14;4.50;77.00
78779;DHT22;68121;52.404;5.318;2024-01-06T01:24:41;4.50;76.90
78779;DHT22;68121;52.404;5.318;2024-01-06T01:27:07;4.50;76.90
78779;DHT22;68121;52.404;5.318;2024-01-06T01:29:33;4.50;76.90
78779;DHT22;68121;52.404;5.318;2024-01-06T01:31:59;4.50;76.90
78779;DHT22;68121;52.404;5.318;2024-01-06T01:34:25;4.40;76.90
78779;DHT22;68121;52.404;5.318;2024-01-06T01:36:52;4.40;77.00
78779;DHT22;68121;52.404;5.318;2024-01-06T01:39:18;4.40;77.00
78779;DHT22;68121;52.404;5.318;2024-01-06T01:41:44;4.40;77.00
78779;DHT22;68121;52.404;5.318;2024-01-06T01:44:10;4.40;77.00
78779;DHT22;68121;52.404;5.318;2024-01-06T01:46:36;4.40;77.00
78779;DHT22;68121;52.404;5.318;2024-01-06T01:49:04;4.40;77.00
78779;DHT22;68121;52.404;5.318;2024-01-06T01:51:33;4.40;77.00
78779;DHT22;68121;52.404;5.318;2024-01-06T01:54:01;4.40;77.00
78779;DHT22;68121;52.404;5.318;2024-01-06T01:56:30;4.40;77.00
78779;DHT22;68121;52.404;5.318;2024-01-06T01:59:03;4.40;77.00
78779;DHT22;68121;52.404;5.318;2024-01-06T02:01:31;4.40;77.10
78779;DHT22;68121;52.404;5.318;2024-01-06T02:03:57;4.40;77.00
78779;DHT22;68121;52.404;5.318;2024-01-06T02:06:23;4.40;77.10
78779;DHT22;68121;52.404;5.318;2024-01-06T02:08:50;4.40;77.10
78779;DHT22;68121;52.404;5.318;2024-01-06T02:11:16;4.40;77.00
78779;DHT22;68121;52.404;5.318;2024-01-06T02:13:42;4.40;77.10
78779;DHT22;68121;52.404;5.318;2024-01-06T02:16:08;4.40;77.00
78779;DHT22;68121;52.404;5.318;2024-01-06T02:18:34;4.40;77.00
78779;DHT22;68121;52.404;5.318;2024-01-06T02:21:02;4.40;77.10
78779;DHT22;68121;52.404;5.318;2024-01-06T02:23:33;4.40;77.00
78779;DHT22;68121;52.404;5.318;2024-01-06T02:26:00;4.40;77.00
78779;DHT22;68121;52.404;5.318;2024-01-06T02:28:26;4.40;77.00
78779;DHT22;68121;52.404;5.318;2024-01-06T02:30:52;4.40;77.00
78779;DHT22;68121;52.404;5.318;2024-01-06T02:33:18;4.40;76.90
78779;DHT22;68121;52.404;5.318;2024-01-06T02:35:46;4.40;76.90
78779;DHT22;68121;52.404;5.318;2024-01-06T02:38:12;4.30;76.90
78779;DHT22;68121;52.404;5.318;2024-01-06T02:40:38;4.30;76.90
78779;DHT22;68121;52.404;5.318;2024-01-06T02:43:04;4.30;76.90
78779;DHT22;68121;52.404;5.318;2024-01-06T02:45:30;4.30;76.90
78779;DHT22;68121;52.404;5.318;2024-01-06T02:47:56;4.30;76.90
78779;DHT22;68121;52.404;5.318;2024-01-06T02:50:22;4.30;76.90
78779;DHT22;68121;52.404;5.318;2024-01-06T02:52:49;4.30;76.90
78779;DHT22;68121;52.404;5.318;2024-01-06T02:55:15;4.20;76.80
78779;DHT22;68121;52.404;5.318;2024-01-06T02:57:41;4.30;76.90
78779;DHT22;68121;52.404;5.318;2024-01-06T03:00:08;4.30;77.00
78779;DHT22;68121;52.404;5.318;2024-01-06T03:02:34;4.30;77.00
78779;DHT22;68121;52.404;5.318;2024-01-06T03:05:02;4.30;76.80
78779;DHT22;68121;52.404;5.318;2024-01-06T03:07:28;4.30;76.90
78779;DHT22;68121;52.404;5.318;2024-01-06T03:09:54;4.30;76.90
78779;DHT22;68121;52.404;5.318;2024-01-06T03:12:20;4.30;76.80
78779;DHT22;68121;52.404;5.318;2024-01-06T03:14:47;4.30;76.80
78779;DHT22;68121;52.404;5.318;2024-01-06T03:17:13;4.30;76.80
78779;DHT22;68121;52.404;5.318;2024-01-06T03:19:39;4.20;76.80
78779;DHT22;68121;52.404;5.318;2024-01-06T03:22:05;4.20;76.80
78779;DHT22;68121;52.404;5.318;2024-01-06T03:24:31;4.20;76.80
78779;DHT22;68121;52.404;5.318;2024-01-06T03:26:57;4.20;76.90
78779;DHT22;68121;52.404;5.318;2024-01-06T03:29:23;4.20;76.90
78779;DHT22;68121;52.404;5.318;2024-01-06T03:31:49;4.30;76.90
78779;DHT22;68121;52.404;5.318;2024-01-06T03:34:15;4.30;76.80
78779;DHT22;68121;52.404;5.318;2024-01-06T03:36:41;4.30;76.70
78779;DHT22;68121;52.404;5.318;2024-01-06T03:39:08;4.20;76.80
78779;DHT22;68121;52.404;5.318;2024-01-06T03:41:34;4.20;76.80
78779;DHT22;68121;52.404;5.318;2024-01-06T03:44:00;4.20;76.80
78779;DHT22;68121;52.404;5.318;2024-01-06T03:46:26;4.20;76.80
78779;DHT22;68121;52.404;5.318;2024-01-06T03:48:52;4.20;76.90
78779;DHT22;68121;52.404;5.318;2024-01-06T03:51:18;4.20;76.80
78779;DHT22;68121;52.404;5.318;2024-01-06T03:53:44;4.20;76.80
78779;DHT22;68121;52.404;5.318;2024-01-06T03:56:13;4.10;76.90
78779;DHT22;68121;52.404;5.318;2024-01-06T03:58:39;4.20;77.00
78779;DHT22;68121;52.404;5.318;2024-01-06T04:01:05;4.20;77.00
78779;DHT22;68121;52.404;5.318;2024-01-06T04:03:31;4.20;76.90
78779;DHT22;68121;52.404;5.318;2024-01-06T04:05:57;4.20;76.90
78779;DHT22;68121;52.404;5.318;2024-01-06T04:08:23;4.10;76.90
78779;DHT22;68121;52.404;5.318;2024-01-06T04:10:49;4.10;77.00
78779;DHT22;68121;52.404;5.318;2024-01-06T04:13:15;4.10;77.00
78779;DHT22;68121;52.404;5.318;2024-01-06T04:15:41;4.10;77.10
78779;DHT22;68121;52.404;5.318;2024-01-06T04:18:07;4.10;77.00
78779;DHT22;68121;52.404;5.318;2024-01-06T04:20:35;4.10;77.00
78779;DHT22;68121;52.404;5.318;2024-01-06T04:23:02;4.10;77.00
78779;DHT22;68121;52.404;5.318;2024-01-06T04:25:28;4.10;77.00
78779;DHT22;68121;52.404;5.318;2024-01-06T04:27:54;4.10;77.10
78779;DHT22;68121;52.404;5.318;2024-01-06T04:30:20;4.10;77.10
78779;DHT22;68121;52.404;5.318;2024-01-06T04:32:46;4.10;77.10
78779;DHT22;68121;52.404;5.318;2024-01-06T04:35:14;4.10;77.00
78779;DHT22;68121;52.404;5.318;2024-01-06T04:37:40;4.10;77.00
78779;DHT22;68121;52.404;5.318;2024-01-06T04:40:07;4.10;77.00
78779;DHT22;68121;52.404;5.318;2024-01-06T04:42:33;4.10;77.10
78779;DHT22;68121;52.404;5.318;2024-01-06T04:44:59;4.10;77.00
78779;DHT22;68121;52.404;5.318;2024-01-06T04:47:26;4.10;77.00
78779;DHT22;68121;52.404;5.318;2024-01-06T04:49:53;4.10;77.00
78779;DHT22;68121;52.404;5.318;2024-01-06T04:52:19;4.10;77.10
78779;DHT22;68121;52.404;5.318;2024-01-06T04:54:45;4.10;77.00
78779;DHT22;68121;52.404;5.318;2024-01-06T04:57:11;4.00;77.00
78779;DHT22;68121;52.404;5.318;2024-01-06T04:59:37;4.00;76.90
78779;DHT22;68121;52.404;5.318;2024-01-06T05:02:04;4.00;77.00
78779;DHT22;68121;52.404;5.318;2024-01-06T05:04:30;4.00;77.00
78779;DHT22;68121;52.404;5.318;2024-01-06T05:06:58;4.00;77.10
78779;DHT22;68121;52.404;5.318;2024-01-06T05:09:25;4.00;77.00
78779;DHT22;68121;52.404;5.318;2024-01-06T05:11:51;4.00;77.00
78779;DHT22;68121;52.404;5.318;2024-01-06T05:14:17;3.90;77.00
78779;DHT22;68121;52.404;5.318;2024-01-06T05:16:43;3.90;77.00
78779;DHT22;68121;52.404;5.318;2024-01-06T05:19:09;3.90;77.10
78779;DHT22;68121;52.404;5.318;2024-01-06T05:21:35;3.90;77.00
78779;DHT22;68121;52.404;5.318;2024-01-06T05:24:01;3.90;77.00
78779;DHT22;68121;52.404;5.318;2024-01-06T05:26:28;3.90;77.00
78779;DHT22;68121;52.404;5.318;2024-01-06T05:28:54;3.90;77.00
78779;DHT22;68121;52.404;5.318;2024-01-06T05:31:20;3.90;77.00
78779;DHT22;68121;52.404;5.318;2024-01-06T05:33:46;3.90;77.00
78779;DHT22;68121;52.404;5.318;2024-01-06T05:36:12;3.90;77.00
78779;DHT22;68121;52.404;5.318;2024-01-06T05:38:38;3.90;77.10
78779;DHT22;68121;52.404;5.318;2024-01-06T05:41:04;3.90;77.00
78779;DHT22;68121;52.404;5.318;2024-01-06T05:43:30;3.80;77.00
78779;DHT22;68121;52.404;5.318;2024-01-06T05:45:56;3.80;77.00
78779;DHT22;68121;52.404;5.318;2024-01-06T05:48:22;3.80;77.00
78779;DHT22;68121;52.404;5.318;2024-01-06T05:50:48;3.80;77.10
78779;DHT22;68121;52.404;5.318;2024-01-06T05:53:14;3.80;77.10
78779;DHT22;68121;52.404;5.318;2024-01-06T05:55:44;3.70;77.10
78779;DHT22;68121;52.404;5.318;2024-01-06T05:58:10;3.70;77.10
78779;DHT22;68121;52.404;5.318;2024-01-06T06:00:36;3.70;77.10
78779;DHT22;68121;52.404;5.318;2024-01-06T06:03:02;3.70;77.20
78779;DHT22;68121;52.404;5.318;2024-01-06T06:05:28;3.70;77.20
78779;DHT22;68121;52.404;5.318;2024-01-06T06:07:54;3.70;77.20
78779;DHT22;68121;52.404;5.318;2024-01-06T06:10:20;3.70;77.20
78779;DHT22;68121;52.404;5.318;2024-01-06T06:12:46;3.70;77.20
78779;DHT22;68121;52.404;5.318;2024-01-06T06:15:13;3.70;77.20
78779;DHT22;68121;52.404;5.318;2024-01-06T06:17:39;3.70;77.30
78779;DHT22;68121;52.404;5.318;2024-01-06T06:20:05;3.70;77.30
78779;DHT22;68121;52.404;5.318;2024-01-06T06:22:34;3.70;77.30
78779;DHT22;68121;52.404;5.318;2024-01-06T06:25:01;3.70;77.30
78779;DHT22;68121;52.404;5.318;2024-01-06T06:27:27;3.70;77.30
78779;DHT22;68121;52.404;5.318;2024-01-06T06:29:54;3.70;77.30
78779;DHT22;68121;52.404;5.318;2024-01-06T06:32:20;3.70;77.30
78779;DHT22;68121;52.404;5.318;2024-01-06T06:34:46;3.70;77.30
78779;DHT22;68121;52.404;5.318;2024-01-06T06:37:12;3.70;77.30
78779;DHT22;68121;52.404;5.318;2024-01-06T06:39:38;3.70;77.40
78779;DHT22;68121;52.404;5.318;2024-01-06T06:42:04;3.80;77.30
78779;DHT22;68121;52.404;5.318;2024-01-06T06:44:30;3.80;77.30
78779;DHT22;68121;52.404;5.318;2024-01-06T06:46:56;3.80;77.20
78779;DHT22;68121;52.404;5.318;2024-01-06T06:49:23;3.90;77.30
78779;DHT22;68121;52.404;5.318;2024-01-06T06:51:49;3.90;77.20
78779;DHT22;68121;52.404;5.318;2024-01-06T06:54:15;3.90;77.20
78779;DHT22;68121;52.404;5.318;2024-01-06T06:56:45;3.90;77.20
78779;DHT22;68121;52.404;5.318;2024-01-06T06:59:11;3.90;77.20
78779;DHT22;68121;52.404;5.318;2024-01-06T07:01:37;3.90;77.20
78779;DHT22;68121;52.404;5.318;2024-01-06T07:04:03;3.90;77.20
78779;DHT22;68121;52.404;5.318;2024-01-06T07:06:30;3.90;77.10
78779;DHT22;68121;52.404;5.318;2024-01-06T07:08:56;3.90;77.10
78779;DHT22;68121;52.404;5.318;2024-01-06T07:11:23;3.90;77.10
78779;DHT22;68121;52.404;5.318;2024-01-06T07:13:50;3.90;77.10
78779;DHT22;68121;52.404;5.318;2024-01-06T07:16:16;3.90;77.10
78779;DHT22;68121;52.404;5.318;2024-01-06T07:18:42;3.90;77.20
78779;DHT22;68121;52.404;5.318;2024-01-06T07:21:08;3.90;77.10
78779;DHT22;68121;52.404;5.318;2024-01-06T07:23:34;3.90;77.10
78779;DHT22;68121;52.404;5.318;2024-01-06T07:26:01;3.90;77.00
78779;DHT22;68121;52.404;5.318;2024-01-06T07:28:27;3.90;77.00
78779;DHT22;68121;52.404;5.318;2024-01-06T07:30:53;4.00;77.20
78779;DHT22;68121;52.404;5.318;2024-01-06T07:33:20;4.00;77.10
78779;DHT22;68121;52.404;5.318;2024-01-06T07:35:47;4.10;76.80
78779;DHT22;68121;52.404;5.318;2024-01-06T07:38:13;4.10;76.80
78779;DHT22;68121;52.404;5.318;2024-01-06T07:40:39;4.00;76.80
78779;DHT22;68121;52.404;5.318;2024-01-06T07:43:06;4.00;76.80
78779;DHT22;68121;52.404;5.318;2024-01-06T07:45:32;3.90;76.90
78779;DHT22;68121;52.404;5.318;2024-01-06T07:47:59;3.90;76.90
78779;DHT22;68121;52.404;5.318;2024-01-06T07:50:25;3.90;77.00
78779;DHT22;68121;52.404;5.318;2024-01-06T07:52:51;3.90;77.00
78779;DHT22;68121;52.404;5.318;2024-01-06T07:55:17;3.90;77.00
78779;DHT22;68121;52.404;5.318;2024-01-06T07:57:44;3.90;77.00
78779;DHT22;68121;52.404;5.318;2024-01-06T08:00:11;3.90;76.90
78779;DHT22;68121;52.404;5.318;2024-01-06T08:02:41;3.90;77.00
78779;DHT22;68121;52.404;5.318;2024-01-06T08:05:07;3.90;76.90
78779;DHT22;68121;52.404;5.318;2024-01-06T08:07:33;3.90;76.90
78779;DHT22;68121;52.404;5.318;2024-01-06T08:10:00;3.90;76.90
78779;DHT22;68121;52.404;5.318;2024-01-06T08:12:26;3.90;76.90
78779;DHT22;68121;52.404;5.318;2024-01-06T08:14:52;3.90;76.80
78779;DHT22;68121;52.404;5.318;2024-01-06T08:17:18;3.90;76.80
78779;DHT22;68121;52.404;5.318;2024-01-06T08:19:44;3.90;76.80
78779;DHT22;68121;52.404;5.318;2024-01-06T08:22:13;3.90;76.80
78779;DHT22;68121;52.404;5.318;2024-01-06T08:24:39;3.90;76.80
78779;DHT22;68121;52.404;5.318;2024-01-06T08:27:05;3.90;76.80
78779;DHT22;68121;52.404;5.318;2024-01-06T08:29:31;4.00;76.70
78779;DHT22;68121;52.404;5.318;2024-01-06T08:31:57;3.90;76.70
78779;DHT22;68121;52.404;5.318;2024-01-06T08:34:23;4.00;76.70
78779;DHT22;68121;52.404;5.318;2024-01-06T08:36:49;3.90;76.70
78779;DHT22;68121;52.404;5.318;2024-01-06T08:39:16;4.00;76.70
78779;DHT22;68121;52.404;5.318;2024-01-06T08:41:43;4.00;76.70
78779;DHT22;68121;52.404;5.318;2024-01-06T08:44:09;4.00;76.60
78779;DHT22;68121;52.404;5.318;2024-01-06T08:46:35;3.90;76.60
78779;DHT22;68121;52.404;5.318;2024-01-06T08:49:01;4.00;76.50
78779;DHT22;68121;52.404;5.318;2024-01-06T08:51:27;4.00;76.60
78779;DHT22;68121;52.404;5.318;2024-01-06T08:53:53;4.00;76.50
78779;DHT22;68121;52.404;5.318;2024-01-06T08:56:20;4.00;76.50
78779;DHT22;68121;52.404;5.318;2024-01-06T08:58:46;3.90;76.50
78779;DHT22;68121;52.404;5.318;2024-01-06T09:01:12;4.00;76.50
78779;DHT22;68121;52.404;5.318;2024-01-06T09:03:39;3.90;76.50
78779;DHT22;68121;52.404;5.318;2024-01-06T09:06:05;4.00;76.50
78779;DHT22;68121;52.404;5.318;2024-01-06T09:08:31;3.90;76.40
78779;DHT22;68121;52.404;5.318;2024-01-06T09:10:57;4.00;76.50
78779;DHT22;68121;52.404;5.318;2024-01-06T09:13:24;4.00;76.40
78779;DHT22;68121;52.404;5.318;2024-01-06T09:15:51;4.00;76.40
78779;DHT22;68121;52.404;5.318;2024-01-06T09:18:17;4.00;76.30
78779;DHT22;68121;52.404;5.318;2024-01-06T09:20:46;4.00;76.40
78779;DHT22;68121;52.404;5.318;2024-01-06T09:23:13;4.00;76.40
78779;DHT22;68121;52.404;5.318;2024-01-06T09:25:39;4.00;76.40
78779;DHT22;68121;52.404;5.318;2024-01-06T09:28:06;4.00;76.30
78779;DHT22;68121;52.404;5.318;2024-01-06T09:30:32;4.00;76.20
78779;DHT22;68121;52.404;5.318;2024-01-06T09:32:58;4.00;76.20
78779;DHT22;68121;52.404;5.318;2024-01-06T09:35:24;4.10;76.20
78779;DHT22;68121;52.404;5.318;2024-01-06T09:37:50;4.10;76.20
78779;DHT22;68121;52.404;5.318;2024-01-06T09:40:21;4.00;76.20
78779;DHT22;68121;52.404;5.318;2024-01-06T09:42:49;4.20;76.40
78779;DHT22;68121;52.404;5.318;2024-01-06T09:45:15;4.20;76.00
78779;DHT22;68121;52.404;5.318;2024-01-06T09:47:41;4.20;76.00
78779;DHT22;68121;52.404;5.318;2024-01-06T09:50:10;4.20;76.00
78779;DHT22;68121;52.404;5.318;2024-01-06T09:52:41;4.20;76.10
78779;DHT22;68121;52.404;5.318;2024-01-06T09:55:11;4.20;76.00
78779;DHT22;68121;52.404;5.318;2024-01-06T09:57:37;4.20;76.00
78779;DHT22;68121;52.404;5.318;2024-01-06T10:00:04;4.20;76.00
78779;DHT22;68121;52.404;5.318;2024-01-06T10:02:31;4.10;76.00
78779;DHT22;68121;52.404;5.318;2024-01-06T10:05:00;4.10;76.00
78779;DHT22;68121;52.404;5.318;2024-01-06T10:07:26;4.10;76.00
78779;DHT22;68121;52.404;5.318;2024-01-06T10:09:54;4.10;76.00
78779;DHT22;68121;52.404;5.318;2024-01-06T10:12:26;4.10;75.90
78779;DHT22;68121;52.404;5.318;2024-01-06T10:14:54;4.10;76.00
78779;DHT22;68121;52.404;5.318;2024-01-06T10:17:20;4.10;75.90
78779;DHT22;68121;52.404;5.318;2024-01-06T10:19:46;4.10;75.80
78779;DHT22;68121;52.404;5.318;2024-01-06T10:22:14;4.20;75.90
78779;DHT22;68121;52.404;5.318;2024-01-06T10:24:40;4.10;75.80
78779;DHT22;68121;52.404;5.318;2024-01-06T10:27:06;4.20;75.80
78779;DHT22;68121;52.404;5.318;2024-01-06T10:29:34;4.20;75.70
78779;DHT22;68121;52.404;5.318;2024-01-06T10:32:00;4.20;75.80
78779;DHT22;68121;52.404;5.318;2024-01-06T10:34:28;4.20;75.70
78779;DHT22;68121;52.404;5.318;2024-01-06T10:36:55;4.20;75.70
78779;DHT22;68121;52.404;5.318;2024-01-06T10:39:22;4.20;75.70
78779;DHT22;68121;52.404;5.318;2024-01-06T10:41:49;4.20;75.70
78779;DHT22;68121;52.404;5.318;2024-01-06T10:44:15;4.10;75.70
78779;DHT22;68121;52.404;5.318;2024-01-06T10:46:41;4.10;75.80
78779;DHT22;68121;52.404;5.318;2024-01-06T10:49:09;4.10;75.70
78779;DHT22;68121;52.404;5.318;2024-01-06T10:51:38;4.10;75.70
78779;DHT22;68121;52.404;5.318;2024-01-06T10:54:05;4.10;75.60
78779;DHT22;68121;52.404;5.318;2024-01-06T10:56:36;4.10;75.70
78779;DHT22;68121;52.404;5.318;2024-01-06T10:59:03;4.10;75.60
78779;DHT22;68121;52.404;5.318;2024-01-06T11:01:29;4.10;75.70
78779;DHT22;68121;52.404;5.318;2024-01-06T11:03:56;4.10;75.60
78779;DHT22;68121;52.404;5.318;2024-01-06T11:06:22;4.10;75.50
78779;DHT22;68121;52.404;5.318;2024-01-06T11:11:27;4.20;75.60
78779;DHT22;68121;52.404;5.318;2024-01-06T11:14:23;4.20;75.40
78779;DHT22;68121;52.404;5.318;2024-01-06T11:16:50;4.20;75.30
78779;DHT22;68121;52.404;5.318;2024-01-06T11:19:43;4.20;75.30
78779;DHT22;68121;52.404;5.318;2024-01-06T11:22:27;4.10;75.30
78779;DHT22;68121;52.404;5.318;2024-01-06T11:25:04;4.10;75.40
78779;DHT22;68121;52.404;5.318;2024-01-06T11:27:32;4.10;75.50
78779;DHT22;68121;52.404;5.318;2024-01-06T11:29:59;4.10;75.40
78779;DHT22;68121;52.404;5.318;2024-01-06T11:32:33;4.10;75.40
78779;DHT22;68121;52.404;5.318;2024-01-06T11:35:21;4.20;75.30
78779;DHT22;68121;52.404;5.318;2024-01-06T11:40:23;4.20;75.20
78779;DHT22;68121;52.404;5.318;2024-01-06T11:43:11;4.10;75.10
78779;DHT22;68121;52.404;5.318;2024-01-06T11:45:42;4.10;75.10
78779;DHT22;68121;52.404;5.318;2024-01-06T11:48:10;4.10;75.10
78779;DHT22;68121;52.404;5.318;2024-01-06T11:50:39;4.10;75.10
78779;DHT22;68121;52.404;5.318;2024-01-06T11:53:06;4.10;75.00
78779;DHT22;68121;52.404;5.318;2024-01-06T11:55:34;4.00;75.10
78779;DHT22;68121;52.404;5.318;2024-01-06T11:58:01;4.00;75.10
78779;DHT22;68121;52.404;5.318;2024-01-06T12:00:29;4.00;75.10
78779;DHT22;68121;52.404;5.318;2024-01-06T12:02:59;4.00;75.00
78779;DHT22;68121;52.404;5.318;2024-01-06T12:05:27;4.00;75.00
78779;DHT22;68121;52.404;5.318;2024-01-06T12:08:03;4.00;74.90
78779;DHT22;68121;52.404;5.318;2024-01-06T12:10:32;4.00;75.00
78779;DHT22;68121;52.404;5.318;2024-01-06T12:13:00;3.90;75.00
78779;DHT22;68121;52.404;5.318;2024-01-06T12:15:28;3.90;74.90
78779;DHT22;68121;52.404;5.318;2024-01-06T12:17:54;3.90;74.90
78779;DHT22;68121;52.404;5.318;2024-01-06T12:20:25;3.90;74.90
78779;DHT22;68121;52.404;5.318;2024-01-06T12:22:52;3.90;74.90
78779;DHT22;68121;52.404;5.318;2024-01-06T12:25:21;4.00;74.90
78779;DHT22;68121;52.404;5.318;2024-01-06T12:27:48;4.00;74.90
78779;DHT22;68121;52.404;5.318;2024-01-06T12:30:15;4.00;74.90
78779;DHT22;68121;52.404;5.318;2024-01-06T12:32:46;4.00;75.00
78779;DHT22;68121;52.404;5.318;2024-01-06T12:35:13;4.00;75.00
78779;DHT22;68121;52.404;5.318;2024-01-06T12:37:41;4.00;74.90
78779;DHT22;68121;52.404;5.318;2024-01-06T12:40:09;4.10;74.80
78779;DHT22;68121;52.404;5.318;2024-01-06T12:42:35;4.00;74.80
78779;DHT22;68121;52.404;5.318;2024-01-06T12:45:02;4.00;74.80
78779;DHT22;68121;52.404;5.318;2024-01-06T12:47:28;4.00;74.80
78779;DHT22;68121;52.404;5.318;2024-01-06T12:49:54;4.00;74.80
78779;DHT22;68121;52.404;5.318;2024-01-06T12:52:20;4.00;74.80
78779;DHT22;68121;52.404;5.318;2024-01-06T12:54:46;4.00;74.80
78779;DHT22;68121;52.404;5.318;2024-01-06T12:57:12;4.00;74.80
78779;DHT22;68121;52.404;5.318;2024-01-06T12:59:38;4.00;74.80
78779;DHT22;68121;52.404;5.318;2024-01-06T13:02:05;3.90;74.80
78779;DHT22;68121;52.404;5.318;2024-01-06T13:04:31;4.00;74.80
78779;DHT22;68121;52.404;5.318;2024-01-06T13:06:57;4.00;74.70
78779;DHT22;68121;52.404;5.318;2024-01-06T13:09:24;4.00;74.70
78779;DHT22;68121;52.404;5.318;2024-01-06T13:11:50;3.90;74.60
78779;DHT22;68121;52.404;5.318;2024-01-06T13:14:17;3.90;74.60
78779;DHT22;68121;52.404;5.318;2024-01-06T13:16:43;3.90;74.60
78779;DHT22;68121;52.404;5.318;2024-01-06T13:19:10;3.90;74.60
78779;DHT22;68121;52.404;5.318;2024-01-06T13:21:36;3.90;74.70
78779;DHT22;68121;52.404;5.318;2024-01-06T13:24:07;3.90;74.70
78779;DHT22;68121;52.404;5.318;2024-01-06T13:26:34;3.90;74.70
78779;DHT22;68121;52.404;5.318;2024-01-06T13:29:00;3.90;74.70
78779;DHT22;68121;52.404;5.318;2024-01-06T13:31:27;3.90;74.70
78779;DHT22;68121;52.404;5.318;2024-01-06T13:33:53;3.90;74.70
78779;DHT22;68121;52.404;5.318;2024-01-06T13:36:22;3.90;74.80
78779;DHT22;68121;52.404;5.318;2024-01-06T13:38:48;3.90;74.80
78779;DHT22;68121;52.404;5.318;2024-01-06T13:41:15;3.90;74.90
78779;DHT22;68121;52.404;5.318;2024-01-06T13:43:41;4.00;74.80
78779;DHT22;68121;52.404;5.318;2024-01-06T13:46:07;4.00;74.80
78779;DHT22;68121;52.404;5.318;2024-01-06T13:48:33;4.00;74.80
78779;DHT22;68121;52.404;5.318;2024-01-06T13:50:59;3.90;74.70
78779;DHT22;68121;52.404;5.318;2024-01-06T13:53:26;3.90;74.70
78779;DHT22;68121;52.404;5.318;2024-01-06T13:55:52;3.90;74.80
78779;DHT22;68121;52.404;5.318;2024-01-06T13:58:18;3.90;74.80
78779;DHT22;68121;52.404;5.318;2024-01-06T14:00:44;3.90;74.80
78779;DHT22;68121;52.404;5.318;2024-01-06T14:03:11;3.90;74.90
78779;DHT22;68121;52.404;5.318;2024-01-06T14:05:37;3.90;74.80
78779;DHT22;68121;52.404;5.318;2024-01-06T14:08:03;3.90;74.80
78779;DHT22;68121;52.404;5.318;2024-01-06T14:10:29;3.90;74.80
78779;DHT22;68121;52.404;5.318;2024-01-06T14:12:57;3.90;74.80
78779;DHT22;68121;52.404;5.318;2024-01-06T14:15:23;3.90;74.80
78779;DHT22;68121;52.404;5.318;2024-01-06T14:17:49;3.90;74.80
78779;DHT22;68121;52.404;5.318;2024-01-06T14:20:17;3.80;74.80
78779;DHT22;68121;52.404;5.318;2024-01-06T14:22:47;3.70;74.80
78779;DHT22;68121;52.404;5.318;2024-01-06T14:25:14;3.80;74.70
78779;DHT22;68121;52.404;5.318;2024-01-06T14:27:41;3.70;74.70
78779;DHT22;68121;52.404;5.318;2024-01-06T14:30:07;3.70;74.60
78779;DHT22;68121;52.404;5.318;2024-01-06T14:32:36;3.70;74.70
78779;DHT22;68121;52.404;5.318;2024-01-06T14:35:04;3.70;74.60
78779;DHT22;68121;52.404;5.318;2024-01-06T14:37:33;3.70;74.60
78779;DHT22;68121;52.404;5.318;2024-01-06T14:39:59;3.70;74.60
78779;DHT22;68121;52.404;5.318;2024-01-06T14:42:33;3.70;74.50
78779;DHT22;68121;52.404;5.318;2024-01-06T14:44:59;3.70;74.50
78779;DHT22;68121;52.404;5.318;2024-01-06T14:47:25;3.70;74.40
78779;DHT22;68121;52.404;5.318;2024-01-06T14:49:51;3.70;74.40
78779;DHT22;68121;52.404;5.318;2024-01-06T14:52:18;3.70;74.40
78779;DHT22;68121;52.404;5.318;2024-01-06T14:54:44;3.70;74.40
78779;DHT22;68121;52.404;5.318;2024-01-06T14:57:11;3.70;74.30
78779;DHT22;68121;52.404;5.318;2024-01-06T14:59:37;3.70;74.30
78779;DHT22;68121;52.404;5.318;2024-01-06T15:02:03;3.70;74.20
78779;DHT22;68121;52.404;5.318;2024-01-06T15:04:29;3.70;74.30
78779;DHT22;68121;52.404;5.318;2024-01-06T15:06:55;3.70;74.20
78779;DHT22;68121;52.404;5.318;2024-01-06T15:09:21;3.70;74.20
78779;DHT22;68121;52.404;5.318;2024-01-06T15:11:50;3.70;74.20
78779;DHT22;68121;52.404;5.318;2024-01-06T15:14:16;3.70;74.20
78779;DHT22;68121;52.404;5.318;2024-01-06T15:16:42;3.80;74.20
78779;DHT22;68121;52.404;5.318;2024-01-06T15:19:08;3.80;74.20
78779;DHT22;68121;52.404;5.318;2024-01-06T15:21:35;3.80;74.10
78779;DHT22;68121;52.404;5.318;2024-01-06T15:24:02;3.80;74.20
78779;DHT22;68121;52.404;5.318;2024-01-06T15:26:29;3.80;74.20
78779;DHT22;68121;52.404;5.318;2024-01-06T15:28:56;3.80;74.10
78779;DHT22;68121;52.404;5.318;2024-01-06T15:31:24;3.80;74.10
78779;DHT22;68121;52.404;5.318;2024-01-06T15:33:50;3.70;74.10
78779;DHT22;68121;52.404;5.318;2024-01-06T15:36:16;3.70;74.20
78779;DHT22;68121;52.404;5.318;2024-01-06T15:38:42;3.70;74.20
78779;DHT22;68121;52.404;5.318;2024-01-06T15:41:08;3.70;74.20
78779;DHT22;68121;52.404;5.318;2024-01-06T15:43:34;3.60;74.10
78779;DHT22;68121;52.404;5.318;2024-01-06T15:46:00;3.60;74.20
78779;DHT22;68121;52.404;5.318;2024-01-06T15:48:26;3.60;74.20